createdAt,value
2022-09-06T00:01:44.636Z,1.16
2022-09-06T00:07:11.238Z,1.41
2022-09-06T00:12:37.969Z,1.27
2022-09-06T00:18:06.000Z,1.91
2022-09-06T00:23:30.026Z,1.32
2022-09-06T00:28:58.097Z,1.39
2022-09-06T00:34:19.521Z,1.42
2022-09-06T00:39:41.345Z,1.42
2022-09-06T00:45:09.273Z,1.12
2022-09-06T00:50:31.106Z,1.55
2022-09-06T00:55:56.279Z,1.30
2022-09-06T01:01:24.329Z,1.34
2022-09-06T01:06:50.976Z,1.41
2022-09-06T01:12:18.167Z,1.29
2022-09-06T01:17:47.182Z,1.16
2022-09-06T01:23:12.186Z,1.19
2022-09-06T01:29:08.584Z,1.11
2022-09-06T01:34:35.491Z,1.41
2022-09-06T01:40:01.753Z,1.37
2022-09-06T01:45:30.902Z,1.53
2022-09-06T01:50:58.928Z,1.56
2022-09-06T01:56:29.854Z,1.49
2022-09-06T02:01:53.821Z,1.69
2022-09-06T02:07:20.465Z,1.64
2022-09-06T02:12:47.653Z,1.29
2022-09-06T02:18:11.569Z,1.11
2022-09-06T02:23:38.853Z,1.29
2022-09-06T02:29:03.341Z,1.45
2022-09-06T02:34:28.384Z,1.40
2022-09-06T02:39:53.911Z,1.09
2022-09-06T02:45:21.250Z,1.19
2022-09-06T02:50:47.149Z,1.08
2022-09-06T02:56:13.754Z,1.00
2022-09-06T03:01:41.654Z,1.12
2022-09-06T03:07:07.706Z,1.08
2022-09-06T03:12:33.076Z,1.15
2022-09-06T03:17:59.562Z,1.15
2022-09-06T03:23:26.064Z,1.52
2022-09-06T03:28:53.052Z,1.44
2022-09-06T03:34:21.423Z,1.18
2022-09-06T03:39:48.967Z,1.09
2022-09-06T03:45:14.890Z,0.91
2022-09-06T03:50:38.748Z,0.88
2022-09-06T03:56:05.678Z,1.15
2022-09-06T04:01:32.385Z,1.08
2022-09-06T04:06:59.585Z,0.72
2022-09-06T04:12:27.058Z,0.92
2022-09-06T04:17:53.017Z,0.86
2022-09-06T04:23:19.027Z,0.87
2022-09-06T04:28:46.120Z,0.99
2022-09-06T04:34:12.832Z,1.01
2022-09-06T04:50:28.963Z,1.08
2022-09-06T04:55:55.561Z,1.00
2022-09-06T05:01:21.298Z,1.20
2022-09-06T05:06:49.458Z,1.23
2022-09-06T05:12:16.864Z,1.06
2022-09-06T05:17:42.235Z,1.30
2022-09-06T05:23:10.004Z,1.60
2022-09-06T05:28:31.831Z,1.97
2022-09-06T05:33:57.054Z,1.72
2022-09-06T05:39:24.240Z,1.64
2022-09-06T05:44:51.036Z,1.86
2022-09-06T05:50:15.315Z,1.65
2022-09-06T05:55:42.768Z,1.76
2022-09-06T06:01:01.135Z,1.81
2022-09-06T06:06:23.770Z,1.78
2022-09-06T06:11:45.977Z,1.94
2022-09-06T06:17:08.301Z,2.26
2022-09-06T06:22:30.025Z,1.68
2022-09-06T06:27:51.652Z,1.93
2022-09-06T06:33:14.125Z,1.81
2022-09-06T06:38:37.951Z,2.15
2022-09-06T06:43:59.672Z,1.88
2022-09-06T06:49:21.770Z,2.66
2022-09-06T06:54:43.635Z,2.53
2022-09-06T07:00:05.502Z,3.09
2022-09-06T07:10:53.045Z,2.98
2022-09-06T07:16:14.863Z,3.05
2022-09-06T07:32:21.518Z,2.78
2022-09-06T07:37:43.711Z,2.92
2022-09-06T07:43:13.458Z,2.68
2022-09-06T07:48:36.325Z,3.14
2022-09-06T07:54:59.611Z,2.45
2022-09-06T08:00:21.457Z,2.25
2022-09-06T08:06:10.769Z,2.07
2022-09-06T08:11:16.691Z,2.60
2022-09-06T08:16:41.603Z,2.42
2022-09-06T08:22:09.003Z,2.70
2022-09-06T08:27:36.197Z,2.78
2022-09-06T08:33:00.922Z,2.37
2022-09-06T08:38:29.007Z,2.25
2022-09-06T08:49:23.521Z,1.98
2022-09-06T08:54:46.092Z,2.38
2022-09-06T09:00:12.006Z,2.48
2022-09-06T09:05:34.068Z,1.56
2022-09-06T09:10:56.287Z,1.80
2022-09-06T09:16:18.557Z,1.61
2022-09-06T09:21:40.396Z,1.88
2022-09-06T09:27:03.111Z,1.83
2022-09-06T09:32:26.711Z,1.81
2022-09-06T09:37:57.379Z,1.76
2022-09-06T09:43:15.964Z,1.79
2022-09-06T09:48:41.858Z,1.72
2022-09-06T09:54:23.172Z,1.55
2022-09-06T09:59:48.321Z,1.71
2022-09-06T10:05:16.179Z,1.44
2022-09-06T10:10:43.637Z,1.66
2022-09-06T10:16:12.387Z,1.48
2022-09-06T10:21:37.625Z,1.62
2022-09-06T10:27:02.991Z,1.49
2022-09-06T10:32:31.392Z,1.52
2022-09-06T10:38:05.905Z,1.50
2022-09-06T10:43:39.846Z,1.54
2022-09-06T10:49:02.114Z,1.36
2022-09-06T10:54:28.100Z,1.62
2022-09-06T10:59:55.279Z,1.87
2022-09-06T11:10:49.085Z,2.07
2022-09-06T11:16:15.698Z,1.58
2022-09-06T11:21:38.962Z,1.53
2022-09-06T11:27:31.603Z,1.79
2022-09-06T11:32:59.623Z,1.40
2022-09-06T11:38:35.013Z,1.45
2022-09-06T11:44:00.468Z,1.49
2022-09-06T11:49:27.012Z,1.23
2022-09-06T11:54:54.671Z,1.36
2022-09-06T12:00:19.652Z,1.24
2022-09-06T12:05:44.696Z,1.29
2022-09-06T12:11:34.133Z,1.08
2022-09-06T12:17:02.311Z,1.13
2022-09-06T12:22:45.946Z,1.38
2022-09-06T12:28:15.902Z,1.22
2022-09-06T12:34:00.627Z,1.23
2022-09-06T12:39:31.034Z,1.18
2022-09-06T12:44:57.933Z,1.26
2022-09-06T12:50:22.453Z,1.21
2022-09-06T12:55:44.337Z,0.94
2022-09-06T13:01:06.917Z,1.29
2022-09-06T13:06:29.002Z,0.85
2022-09-06T13:11:51.382Z,0.90
2022-09-06T13:17:13.540Z,1.00
2022-09-06T13:22:40.899Z,1.44
2022-09-06T13:28:03.745Z,1.01
2022-09-06T13:33:25.353Z,1.00
2022-09-06T13:38:47.650Z,1.44
2022-09-06T13:44:09.631Z,1.38
2022-09-06T13:49:43.331Z,1.23
2022-09-06T13:55:07.518Z,2.31
2022-09-06T14:00:29.428Z,1.35
2022-09-06T14:05:51.522Z,1.32
2022-09-06T14:11:13.451Z,1.49
2022-09-06T14:16:38.543Z,1.08
2022-09-06T14:22:04.055Z,1.20
2022-09-06T14:27:25.799Z,1.16
2022-09-06T14:32:48.447Z,1.22
2022-09-06T14:38:12.961Z,1.17
2022-09-06T14:43:41.260Z,1.19
2022-09-06T14:49:10.165Z,1.02
2022-09-06T14:54:38.399Z,1.06
2022-09-06T15:00:06.720Z,1.11
2022-09-06T15:05:31.660Z,0.98
2022-09-06T15:10:58.724Z,0.81
2022-09-06T15:16:22.866Z,0.89
2022-09-06T15:21:50.239Z,1.04
2022-09-06T15:27:17.128Z,1.14
2022-09-06T15:32:42.570Z,0.82
2022-09-06T15:38:07.663Z,0.91
2022-09-06T15:43:33.397Z,0.68
2022-09-06T15:49:00.695Z,1.10
2022-09-06T15:54:25.401Z,1.14
2022-09-06T15:59:47.174Z,1.11
2022-09-06T16:05:12.487Z,0.83
2022-09-06T16:10:40.464Z,1.26
2022-09-06T16:16:08.343Z,0.81
2022-09-06T16:21:30.357Z,1.53
2022-09-06T16:26:56.958Z,1.22
2022-09-06T16:32:24.075Z,1.03
2022-09-06T16:37:52.021Z,1.05
2022-09-06T16:43:18.348Z,0.96
2022-09-06T16:48:45.893Z,0.98
2022-09-06T16:54:09.419Z,1.05
2022-09-06T16:59:35.632Z,1.07
2022-09-06T17:05:00.947Z,1.13
2022-09-06T17:10:26.847Z,0.93
2022-09-06T17:15:55.174Z,1.16
2022-09-06T17:21:19.966Z,1.09
2022-09-06T17:26:45.562Z,1.02
2022-09-06T17:32:13.124Z,0.97
2022-09-06T17:37:40.155Z,0.87
2022-09-06T17:43:04.771Z,1.07
2022-09-06T17:48:27.166Z,0.85
2022-09-06T17:53:51.773Z,0.98
2022-09-06T17:59:18.944Z,0.84
2022-09-06T18:04:46.432Z,0.85
2022-09-06T18:10:12.121Z,1.01
2022-09-06T18:15:36.933Z,0.93
2022-09-06T18:21:03.621Z,0.96
2022-09-06T18:26:31.644Z,0.86
2022-09-06T18:31:53.280Z,0.96
2022-09-06T18:37:20.946Z,1.00
2022-09-06T18:42:46.120Z,0.79
2022-09-06T18:48:12.708Z,0.92
2022-09-06T18:53:43.977Z,0.80
2022-09-06T18:59:03.497Z,0.82
2022-09-06T19:04:29.113Z,1.35
2022-09-06T19:09:56.349Z,0.97
2022-09-06T19:15:21.336Z,0.84
2022-09-06T19:20:47.658Z,0.62
2022-09-06T19:26:16.083Z,0.82
2022-09-06T19:31:40.122Z,1.05
2022-09-06T19:37:05.726Z,1.09
2022-09-06T19:42:32.940Z,0.97
2022-09-06T19:47:56.548Z,0.84
2022-09-06T19:53:21.554Z,1.13
2022-09-06T19:58:47.822Z,0.73
2022-09-06T20:04:11.281Z,2.51
2022-09-06T20:09:38.860Z,0.79
2022-09-06T20:15:06.999Z,0.85
2022-09-06T20:20:34.508Z,0.83
2022-09-06T20:26:00.589Z,0.64
2022-09-06T20:31:28.189Z,0.74
2022-09-06T20:36:55.339Z,0.70
2022-09-06T20:42:21.783Z,0.57
2022-09-06T20:47:45.921Z,0.81
2022-09-06T20:53:13.135Z,0.73
2022-09-06T20:58:39.452Z,0.87
2022-09-06T21:04:05.646Z,0.93
2022-09-06T21:09:30.647Z,0.78
2022-09-06T21:14:57.863Z,0.83
2022-09-06T21:20:22.889Z,0.83
2022-09-06T21:25:49.566Z,0.73
2022-09-06T21:31:14.428Z,0.79
2022-09-06T21:36:41.699Z,0.74
2022-09-06T21:42:06.398Z,0.75
2022-09-06T21:47:29.439Z,0.70
2022-09-06T21:52:55.053Z,1.02
2022-09-06T21:58:21.093Z,0.73
2022-09-06T22:03:47.224Z,0.97
2022-09-06T22:09:11.759Z,0.75
2022-09-06T22:14:38.795Z,0.85
2022-09-06T22:20:04.765Z,0.78
2022-09-06T22:25:31.978Z,0.90
2022-09-06T22:30:56.891Z,0.82
2022-09-06T22:36:21.771Z,0.61
2022-09-06T22:41:45.760Z,0.89
2022-09-06T22:47:11.928Z,0.90
2022-09-06T22:52:37.002Z,0.74
2022-09-06T22:58:02.410Z,0.96
2022-09-06T23:03:23.889Z,1.06
2022-09-06T23:08:48.992Z,1.26
2022-09-06T23:14:15.633Z,0.90
2022-09-06T23:19:42.712Z,1.00
2022-09-06T23:25:10.495Z,1.20
2022-09-06T23:30:37.241Z,1.18
2022-09-06T23:36:04.400Z,1.00
2022-09-06T23:41:28.463Z,0.92
2022-09-06T23:46:53.113Z,1.21
2022-09-06T23:52:17.615Z,1.28
2022-09-06T23:57:45.238Z,1.14
